Time;durP1;ratioP1;P1;durP2;ratioP2;P2;SDS_P1;SDS_P2;PMS_P1;PMS_P2;Temp;Humidity;BMP_temperature;BMP_pressure;BME280_temperature;BME280_humidity;BME280_pressure;Samples;Min_cycle;Max_cycle;Signal;HPM_P1;HPM_P2
2023/01/21 00:00:12;;;;;;;31.83;31.13;;;1.80;99.90;;;;;;5224357;22;20345;-85
2023/01/21 00:02:32;;;;;;;30.42;29.63;;;1.80;99.90;;;;;;5224436;22;20022;-85
2023/01/21 00:04:51;;;;;;;29.15;28.55;;;1.80;99.90;;;;;;5224416;22;20072;-85
2023/01/21 00:07:11;;;;;;;27.02;26.33;;;1.80;99.90;;;;;;5233059;22;20056;-85
2023/01/21 00:09:32;;;;;;;23.42;22.98;;;1.80;99.90;;;;;;5224439;22;20041;-85
2023/01/21 00:11:52;;;;;;;21.33;20.88;;;1.80;99.90;;;;;;5232922;22;20027;-85
2023/01/21 00:14:12;;;;;;;25.45;24.65;;;1.80;99.90;;;;;;5200909;22;20023;-85
2023/01/21 00:16:31;;;;;;;26.50;25.70;;;1.80;99.90;;;;;;5219465;22;20034;-85
2023/01/21 00:18:51;;;;;;;28.52;27.90;;;1.90;99.90;;;;;;5209252;22;20340;-85
2023/01/21 00:21:11;;;;;;;28.35;27.60;;;1.90;99.90;;;;;;5217702;22;20026;-85
2023/01/21 00:23:32;;;;;;;27.98;26.60;;;2.00;99.90;;;;;;5200822;22;20023;-85
2023/01/21 00:26:04;;;;;;;28.48;27.65;;;2.00;99.90;;;;;;5219863;22;20382;-85
2023/01/21 00:28:31;;;;;;;29.65;28.48;;;1.90;99.90;;;;;;5201607;22;20030;-85
2023/01/21 00:30:55;;;;;;;28.98;27.98;;;1.90;99.90;;;;;;5234636;22;20076;-85
2023/01/21 00:33:14;;;;;;;23.90;23.40;;;1.80;99.90;;;;;;5204244;22;20022;-85
2023/01/21 00:35:34;;;;;;;28.88;28.08;;;1.80;99.90;;;;;;5210300;22;20214;-84
2023/01/21 00:37:54;;;;;;;34.28;32.15;;;2.00;99.90;;;;;;5201795;22;20026;-84
2023/01/21 00:40:14;;;;;;;30.58;29.77;;;2.00;99.90;;;;;;5201904;22;20227;-84
2023/01/21 00:42:34;;;;;;;28.63;27.67;;;2.10;99.90;;;;;;5201938;22;20337;-84
2023/01/21 00:44:56;;;;;;;22.75;22.08;;;2.10;99.90;;;;;;5201297;22;20239;-84
2023/01/21 00:47:15;;;;;;;19.95;19.40;;;2.00;99.90;;;;;;5204558;22;20102;-84
2023/01/21 00:49:35;;;;;;;10.63;10.43;;;1.90;99.90;;;;;;5224305;22;20060;-84
2023/01/21 00:51:54;;;;;;;15.93;13.93;;;1.90;99.90;;;;;;5197424;22;20065;-85
2023/01/21 00:54:14;;;;;;;17.30;15.63;;;1.90;99.90;;;;;;5208419;22;20066;-85
2023/01/21 00:56:34;;;;;;;20.83;20.02;;;1.90;99.90;;;;;;5232904;22;20026;-85
2023/01/21 00:58:54;;;;;;;22.90;21.77;;;1.80;99.90;;;;;;5224113;22;20022;-85
2023/01/21 01:01:19;;;;;;;20.70;19.90;;;1.80;99.90;;;;;;5224260;22;20085;-85
2023/01/21 01:03:40;;;;;;;22.73;21.40;;;1.80;99.90;;;;;;5224244;22;20022;-85
2023/01/21 01:06:10;;;;;;;17.35;16.65;;;1.80;99.90;;;;;;5224156;22;20026;-84
2023/01/21 01:08:31;;;;;;;19.05;18.73;;;1.80;99.90;;;;;;5224571;22;20023;-85
2023/01/21 01:10:53;;;;;;;25.77;25.33;;;1.90;99.90;;;;;;5224236;22;20042;-85
2023/01/21 01:13:13;;;;;;;25.92;25.42;;;2.00;99.90;;;;;;5200697;22;20275;-85
2023/01/21 01:15:33;;;;;;;23.95;23.58;;;2.00;99.90;;;;;;5218925;22;20027;-85
2023/01/21 01:17:54;;;;;;;29.38;28.70;;;2.00;99.90;;;;;;5219113;22;20069;-85
2023/01/21 01:20:14;;;;;;;24.10;23.60;;;1.90;99.90;;;;;;5219182;22;20026;-85
2023/01/21 01:22:34;;;;;;;26.60;26.08;;;2.00;99.90;;;;;;5225237;22;20345;-85
2023/01/21 01:24:54;;;;;;;26.15;25.50;;;2.00;99.90;;;;;;5227394;22;20034;-84
2023/01/21 01:27:14;;;;;;;27.15;26.65;;;1.90;99.90;;;;;;5227445;22;20037;-85
2023/01/21 01:29:34;;;;;;;24.77;24.38;;;1.90;99.90;;;;;;5224992;22;20251;-85
2023/01/21 01:31:54;;;;;;;23.35;23.05;;;1.90;99.90;;;;;;5210148;22;20069;-85
2023/01/21 01:34:14;;;;;;;26.73;26.17;;;1.90;99.90;;;;;;5187352;22;20022;-85
2023/01/21 01:36:34;;;;;;;26.52;25.95;;;1.90;99.90;;;;;;5202680;22;20058;-85
2023/01/21 01:38:55;;;;;;;25.70;24.40;;;1.90;99.90;;;;;;5232662;22;20127;-85
2023/01/21 01:41:21;;;;;;;25.25;24.52;;;1.90;99.90;;;;;;5224162;22;20030;-85
2023/01/21 01:43:52;;;;;;;28.15;27.38;;;1.90;99.90;;;;;;5224123;22;20026;-84
2023/01/21 01:46:12;;;;;;;26.90;26.20;;;2.00;99.90;;;;;;5224014;22;20088;-84
2023/01/21 01:48:32;;;;;;;26.42;25.92;;;1.90;99.90;;;;;;5224011;22;20352;-84
2023/01/21 01:50:56;;;;;;;27.27;26.58;;;1.90;99.90;;;;;;5200726;22;20214;-85
2023/01/21 01:53:18;;;;;;;27.08;26.48;;;2.00;99.90;;;;;;5200026;22;20027;-85
2023/01/21 01:55:39;;;;;;;29.52;28.83;;;1.90;99.90;;;;;;5197230;22;20214;-84
2023/01/21 01:58:02;;;;;;;30.10;29.45;;;1.90;99.90;;;;;;5193999;22;20026;-84
2023/01/21 02:00:24;;;;;;;32.08;31.02;;;2.00;99.90;;;;;;5219280;22;20068;-84
2023/01/21 02:03:43;;;;;;;28.02;27.42;;;2.00;99.90;;;;;;5223974;22;20353;-85
2023/01/21 02:05:24;;;;;;;28.83;28.23;;;1.90;99.90;;;;;;5227042;22;20113;-84
2023/01/21 02:07:45;;;;;;;29.52;28.85;;;1.90;99.90;;;;;;5222162;22;20026;-84
2023/01/21 02:10:09;;;;;;;28.58;27.88;;;1.90;99.90;;;;;;5209982;22;20375;-84
2023/01/21 02:12:29;;;;;;;31.15;30.35;;;1.90;99.90;;;;;;5178788;22;20023;-84
2023/01/21 02:14:49;;;;;;;31.65;30.83;;;2.00;99.90;;;;;;5179531;22;20023;-84
2023/01/21 02:17:13;;;;;;;33.00;31.90;;;2.00;99.90;;;;;;5223105;22;20046;-84
2023/01/21 02:19:55;;;;;;;31.88;30.88;;;1.90;99.90;;;;;;5200941;22;20022;-84
2023/01/21 02:22:42;;;;;;;30.13;29.33;;;2.00;99.90;;;;;;5200097;22;20027;-84
2023/01/21 02:25:15;;;;;;;29.20;28.60;;;2.00;99.90;;;;;;5226477;22;20029;-84
2023/01/21 02:27:41;;;;;;;28.83;27.92;;;1.90;99.90;;;;;;5200381;22;20034;-84
2023/01/21 02:30:13;;;;;;;26.92;26.05;;;1.80;99.90;;;;;;5224004;22;20026;-84
2023/01/21 02:33:12;;;;;;;31.33;30.63;;;1.80;99.90;;;;;;5212165;22;20022;-85
2023/01/21 02:35:41;;;;;;;28.75;28.08;;;1.90;99.90;;;;;;5208129;22;20046;-85
2023/01/21 02:38:39;;;;;;;28.50;27.70;;;1.90;99.90;;;;;;5200332;22;20118;-85
2023/01/21 02:41:08;;;;;;;25.58;25.00;;;1.90;99.90;;;;;;5220350;22;20202;-85
2023/01/21 02:44:12;;;;;;;29.27;28.52;;;1.90;99.90;;;;;;5223823;22;20026;-84
2023/01/21 02:46:46;;;;;;;29.70;28.85;;;1.90;99.90;;;;;;5223692;22;20354;-84
2023/01/21 02:49:14;;;;;;;28.00;27.30;;;1.80;99.90;;;;;;5223751;22;20041;-84
2023/01/21 02:51:34;;;;;;;26.23;25.63;;;1.80;99.90;;;;;;5212436;22;20069;-84
2023/01/21 02:53:54;;;;;;;28.30;27.60;;;1.80;99.90;;;;;;5212721;22;20046;-84
2023/01/21 02:56:18;;;;;;;29.90;29.15;;;1.90;99.90;;;;;;5223635;22;20023;-84
2023/01/21 02:58:44;;;;;;;30.73;29.50;;;1.90;99.90;;;;;;5223603;22;20034;-84
2023/01/21 03:01:27;;;;;;;28.27;27.67;;;1.80;99.90;;;;;;5223640;22;20026;-84
2023/01/21 03:03:55;;;;;;;28.88;28.08;;;1.80;99.90;;;;;;5226923;22;20324;-85
2023/01/21 03:06:34;;;;;;;29.73;28.92;;;1.80;99.90;;;;;;5227723;22;20033;-85
2023/01/21 03:09:12;;;;;;;28.38;27.65;;;1.80;99.90;;;;;;5224619;22;20065;-85
2023/01/21 03:11:33;;;;;;;29.40;28.60;;;1.80;99.90;;;;;;5224530;22;20221;-85
2023/01/21 03:16:56;;;;;;;30.85;29.90;;;1.70;99.90;;;;;;5218241;22;20034;-84
2023/01/21 03:19:19;;;;;;;28.75;27.98;;;1.80;99.90;;;;;;5224519;22;20062;-84
2023/01/21 03:21:39;;;;;;;;;;;1.80;99.90;;;;;;5198360;22;20027;-84
2023/01/21 03:24:00;;;;;;;28.27;27.33;;;1.80;99.90;;;;;;5224067;22;20352;-84
2023/01/21 03:26:31;;;;;;;29.10;28.23;;;1.80;99.90;;;;;;5227861;22;20408;-84
2023/01/21 03:28:54;;;;;;;29.75;29.08;;;1.70;99.90;;;;;;5226771;22;20026;-84
2023/01/21 03:31:19;;;;;;;;;;;1.80;99.90;;;;;;5202626;22;20023;-84
2023/01/21 03:33:44;;;;;;;28.50;27.52;;;1.70;99.90;;;;;;5181894;22;20240;-84
2023/01/21 03:36:15;;;;;;;25.77;25.17;;;1.70;99.90;;;;;;5224571;22;20330;-85
2023/01/21 03:38:42;;;;;;;30.70;29.80;;;1.70;99.90;;;;;;5216212;22;20042;-85
2023/01/21 03:41:32;;;;;;;31.27;30.35;;;1.70;99.90;;;;;;5211776;22;20099;-84
2023/01/21 03:43:52;;;;;;;33.72;32.83;;;1.70;99.90;;;;;;5224614;22;20030;-85
2023/01/21 03:46:32;;;;;;;30.70;29.83;;;1.80;99.90;;;;;;5224548;22;20076;-84
2023/01/21 03:49:01;;;;;;;30.40;29.50;;;1.70;99.90;;;;;;5227646;22;20026;-84
2023/01/21 03:51:26;;;;;;;32.10;31.00;;;1.70;99.90;;;;;;5226795;22;20021;-85
2023/01/21 03:53:57;;;;;;;28.27;27.60;;;1.60;99.90;;;;;;5202056;22;20050;-84
2023/01/21 03:56:17;;;;;;;24.33;23.75;;;1.60;99.90;;;;;;5205522;22;20027;-84
2023/01/21 03:58:36;;;;;;;26.35;25.65;;;1.70;99.90;;;;;;5197560;22;20250;-84
2023/01/21 04:00:57;;;;;;;26.95;26.25;;;1.70;99.90;;;;;;5206320;22;20054;-84
2023/01/21 04:03:17;;;;;;;26.50;25.83;;;1.60;99.90;;;;;;5224539;22;20046;-84
2023/01/21 04:05:37;;;;;;;25.58;24.88;;;1.50;99.90;;;;;;5226444;22;20026;-84
2023/01/21 04:07:57;;;;;;;22.92;22.23;;;1.50;99.90;;;;;;5224513;22;20022;-85
2023/01/21 04:10:17;;;;;;;24.05;23.45;;;1.50;99.90;;;;;;5224524;22;20057;-84
2023/01/21 04:12:37;;;;;;;26.85;26.25;;;1.50;99.90;;;;;;5233024;22;20084;-84
2023/01/21 04:14:57;;;;;;;27.65;26.85;;;1.60;99.90;;;;;;5224478;22;20038;-84
2023/01/21 04:17:17;;;;;;;29.40;28.55;;;1.60;99.90;;;;;;5200887;22;20206;-84
2023/01/21 04:19:37;;;;;;;31.15;30.27;;;1.80;99.90;;;;;;5205916;22;20027;-84
2023/01/21 04:21:57;;;;;;;28.77;27.98;;;1.70;99.90;;;;;;5225476;22;20210;-84
2023/01/21 04:24:18;;;;;;;29.83;29.05;;;1.70;99.90;;;;;;5224401;22;20352;-84
2023/01/21 04:26:38;;;;;;;29.95;29.35;;;1.70;99.90;;;;;;5232857;22;20206;-84
2023/01/21 04:28:58;;;;;;;28.48;27.88;;;1.70;99.90;;;;;;5224262;22;20230;-84
2023/01/21 04:31:17;;;;;;;27.25;26.45;;;1.70;99.90;;;;;;5200819;22;20042;-84
2023/01/21 04:33:37;;;;;;;23.10;22.70;;;1.70;99.90;;;;;;5197540;22;20022;-84
2023/01/21 04:35:58;;;;;;;25.10;24.60;;;1.70;99.90;;;;;;5223128;22;20026;-84
2023/01/21 04:38:18;;;;;;;28.85;28.25;;;1.60;99.90;;;;;;5222919;22;20047;-84
2023/01/21 04:40:38;;;;;;;25.85;25.23;;;1.70;99.90;;;;;;5201100;22;20034;-84
2023/01/21 04:42:58;;;;;;;26.08;25.17;;;1.60;99.90;;;;;;5226521;22;20023;-84
2023/01/21 04:45:18;;;;;;;24.25;23.65;;;1.60;99.90;;;;;;5227353;22;20028;-84
2023/01/21 04:47:42;;;;;;;26.80;26.08;;;1.60;99.90;;;;;;5201830;22;20046;-84
2023/01/21 04:50:03;;;;;;;26.30;25.67;;;1.60;99.90;;;;;;5201768;22;20030;-84
2023/01/21 04:52:23;;;;;;;28.55;27.60;;;1.60;99.90;;;;;;5224240;22;20035;-84
2023/01/21 04:54:43;;;;;;;24.15;23.63;;;1.60;99.90;;;;;;5224240;22;20054;-84
2023/01/21 04:57:03;;;;;;;25.80;25.20;;;1.60;99.90;;;;;;5224215;22;20027;-84
2023/01/21 04:59:22;;;;;;;25.30;24.50;;;1.50;99.90;;;;;;5224007;22;20250;-84
2023/01/21 05:01:42;;;;;;;24.63;24.13;;;1.60;99.90;;;;;;5224245;22;20233;-84
2023/01/21 05:04:02;;;;;;;25.67;25.17;;;1.60;99.90;;;;;;5224354;22;20023;-84
2023/01/21 05:06:22;;;;;;;24.05;23.65;;;1.60;99.90;;;;;;5224154;22;20060;-84
2023/01/21 05:08:42;;;;;;;29.67;28.73;;;1.60;99.90;;;;;;5224209;22;20349;-84
2023/01/21 05:11:02;;;;;;;28.75;28.05;;;1.60;99.90;;;;;;5224205;22;20041;-84
2023/01/21 05:13:21;;;;;;;26.75;26.15;;;1.60;99.90;;;;;;5224166;22;20347;-84
2023/01/21 05:15:41;;;;;;;28.10;27.60;;;1.70;99.90;;;;;;5224141;22;20057;-84
2023/01/21 05:18:01;;;;;;;28.73;28.02;;;1.70;99.90;;;;;;5224216;22;20087;-84
2023/01/21 05:20:22;;;;;;;28.40;27.80;;;1.80;99.90;;;;;;5223969;22;20042;-85
2023/01/21 05:22:46;;;;;;;30.67;29.52;;;1.80;99.90;;;;;;5224148;22;20206;-84
2023/01/21 05:25:08;;;;;;;27.50;26.65;;;1.80;99.90;;;;;;5224112;22;20227;-84
2023/01/21 05:27:29;;;;;;;26.70;25.90;;;1.80;99.90;;;;;;5223467;22;20022;-84
2023/01/21 05:29:49;;;;;;;27.70;27.00;;;1.80;99.90;;;;;;5232666;22;20037;-84
2023/01/21 05:32:09;;;;;;;30.85;30.05;;;1.80;99.90;;;;;;5232694;22;20026;-84
2023/01/21 05:34:29;;;;;;;25.90;25.40;;;1.80;99.90;;;;;;5200457;22;20062;-84
2023/01/21 05:36:49;;;;;;;26.35;25.65;;;1.90;99.90;;;;;;5224129;22;20065;-84
2023/01/21 05:39:09;;;;;;;27.52;26.95;;;1.80;99.90;;;;;;5227236;22;20023;-84
2023/01/21 05:41:29;;;;;;;28.33;27.63;;;1.80;99.90;;;;;;5209177;22;20062;-84
2023/01/21 05:43:49;;;;;;;31.10;30.17;;;1.80;99.90;;;;;;5201575;22;20023;-84
2023/01/21 05:46:09;;;;;;;27.30;26.60;;;1.80;99.90;;;;;;5200519;22;20230;-84
2023/01/21 05:48:30;;;;;;;30.13;29.35;;;1.80;99.90;;;;;;5201707;22;20056;-84
2023/01/21 05:50:50;;;;;;;29.55;28.63;;;1.80;99.90;;;;;;5200826;22;20353;-84
2023/01/21 05:53:11;;;;;;;28.92;27.77;;;1.80;99.90;;;;;;5222870;22;20258;-84
2023/01/21 05:55:31;;;;;;;26.65;26.00;;;1.80;99.90;;;;;;5224094;22;20046;-84
2023/01/21 05:57:51;;;;;;;28.70;27.92;;;1.80;99.90;;;;;;5223988;22;20034;-84
2023/01/21 06:00:12;;;;;;;30.38;29.58;;;1.80;99.90;;;;;;5223887;22;20226;-84
2023/01/21 06:02:32;;;;;;;33.63;32.28;;;1.80;99.90;;;;;;5224021;22;20209;-84
2023/01/21 06:04:52;;;;;;;29.10;28.50;;;1.90;99.90;;;;;;5223892;22;20218;-84
2023/01/21 06:07:12;;;;;;;30.08;29.38;;;1.90;99.90;;;;;;5223872;22;20053;-84
2023/01/21 06:09:32;;;;;;;26.58;25.88;;;1.80;99.90;;;;;;5232614;22;20360;-84
2023/01/21 06:11:52;;;;;;;24.98;24.38;;;1.80;99.90;;;;;;5223875;22;20238;-84
2023/01/21 06:14:12;;;;;;;25.67;24.95;;;1.70;99.90;;;;;;5223854;22;20065;-84
2023/01/21 06:16:32;;;;;;;15.55;15.30;;;1.70;99.90;;;;;;5200388;22;20050;-85
2023/01/21 06:18:51;;;;;;;21.85;21.35;;;1.70;99.90;;;;;;5214727;22;20057;-84
2023/01/21 06:21:11;;;;;;;16.35;16.08;;;1.70;99.90;;;;;;5200457;22;20065;-87
2023/01/21 06:23:32;;;;;;;21.55;21.15;;;1.60;99.90;;;;;;5216955;22;20068;-87
2023/01/21 06:25:52;;;;;;;12.27;12.15;;;1.60;99.90;;;;;;5232471;22;20117;-88
2023/01/21 06:28:12;;;;;;;21.73;21.33;;;1.60;99.90;;;;;;5223834;22;20046;-88
2023/01/21 06:30:32;;;;;;;15.32;15.07;;;1.60;99.90;;;;;;5223886;22;20053;-87
2023/01/21 06:32:52;;;;;;;20.23;19.77;;;1.60;99.90;;;;;;5208720;22;20026;-88
2023/01/21 06:35:11;;;;;;;23.60;22.95;;;1.60;99.90;;;;;;5222129;22;20022;-87
2023/01/21 06:37:31;;;;;;;23.98;23.33;;;1.60;99.90;;;;;;5223823;22;20091;-88
2023/01/21 06:39:51;;;;;;;24.73;23.83;;;1.60;99.90;;;;;;5226800;22;20038;-87
2023/01/21 06:42:10;;;;;;;30.67;29.60;;;1.70;99.90;;;;;;5227010;22;20057;-87
2023/01/21 06:44:30;;;;;;;24.30;23.70;;;1.80;99.90;;;;;;5226907;22;20022;-88
2023/01/21 06:46:50;;;;;;;26.52;25.52;;;1.70;99.90;;;;;;5227035;22;20026;-87
2023/01/21 06:49:20;;;;;;;29.80;28.67;;;1.80;99.90;;;;;;5223708;22;20026;-87
2023/01/21 06:51:40;;;;;;;29.58;28.88;;;1.80;99.90;;;;;;5223764;22;20230;-88
2023/01/21 06:54:00;;;;;;;28.40;27.80;;;1.90;99.90;;;;;;5223758;22;20110;-88
2023/01/21 06:56:21;;;;;;;27.10;26.60;;;1.90;99.90;;;;;;5223771;22;20026;-87
2023/01/21 06:58:40;;;;;;;23.35;22.80;;;1.80;99.90;;;;;;5223448;22;20206;-87
2023/01/21 07:01:00;;;;;;;24.05;23.55;;;1.80;99.90;;;;;;5232237;22;20427;-87
2023/01/21 07:03:21;;;;;;;28.58;27.80;;;1.80;99.90;;;;;;5223605;22;20061;-87
2023/01/21 07:05:41;;;;;;;34.85;32.80;;;1.80;99.90;;;;;;5232120;22;20060;-87
2023/01/21 07:08:00;;;;;;;28.05;27.35;;;1.80;99.90;;;;;;5213733;22;20023;-87
2023/01/21 07:10:24;;;;;;;30.88;30.05;;;1.80;99.90;;;;;;5210714;22;20030;-87
2023/01/21 07:12:43;;;;;;;;;;;1.80;99.90;;;;;;5211473;22;20341;-87
2023/01/21 07:15:03;;;;;;;33.00;31.98;;;1.80;99.90;;;;;;5199825;22;20122;-87
2023/01/21 07:17:23;;;;;;;34.92;33.72;;;1.70;99.90;;;;;;5221887;22;20074;-87
2023/01/21 07:19:42;;;;;;;33.75;32.70;;;1.70;99.90;;;;;;5223389;22;20026;-87
2023/01/21 07:22:03;;;;;;;35.15;33.88;;;1.70;99.90;;;;;;5200079;22;20022;-88
2023/01/21 07:24:23;;;;;;;32.30;31.40;;;1.60;99.90;;;;;;5226106;22;20052;-88
2023/01/21 07:26:42;;;;;;;31.60;30.63;;;1.60;99.90;;;;;;5196680;22;20238;-87
2023/01/21 07:29:06;;;;;;;30.80;30.00;;;1.50;99.90;;;;;;5196654;22;20083;-87
2023/01/21 07:31:25;;;;;;;;;;;1.50;99.90;;;;;;5230315;22;20061;-87
2023/01/21 07:33:45;;;;;;;32.33;31.25;;;1.50;99.90;;;;;;5223297;22;19952;-87
2023/01/21 07:36:06;;;;;;;34.50;32.95;;;1.50;99.90;;;;;;5223253;22;20064;-88
2023/01/21 07:38:26;;;;;;;30.35;29.52;;;1.50;99.90;;;;;;5226476;22;20030;-87
2023/01/21 07:40:50;;;;;;;31.33;30.52;;;1.50;99.90;;;;;;5226492;22;20041;-87
2023/01/21 07:43:09;;;;;;;26.83;26.23;;;1.50;99.90;;;;;;5202719;22;20080;-87
2023/01/21 07:45:29;;;;;;;31.10;30.30;;;1.60;99.90;;;;;;5200714;22;20026;-87
2023/01/21 07:47:49;;;;;;;30.20;29.30;;;1.60;99.90;;;;;;5200843;22;20022;-87
2023/01/21 07:50:09;;;;;;;32.22;31.33;;;1.50;99.90;;;;;;5201494;22;20023;-87
2023/01/21 07:52:30;;;;;;;31.63;30.67;;;1.50;99.90;;;;;;5224463;22;20031;-87
2023/01/21 07:54:50;;;;;;;32.03;31.10;;;1.40;99.90;;;;;;5223309;22;20083;-87
2023/01/21 07:57:10;;;;;;;33.13;31.90;;;1.30;99.90;;;;;;5224497;22;20031;-87
2023/01/21 07:59:29;;;;;;;33.00;31.92;;;1.40;99.90;;;;;;5224315;22;20071;-87
2023/01/21 08:01:50;;;;;;;32.50;31.50;;;1.40;99.90;;;;;;5224510;22;20030;-87
2023/01/21 08:04:10;;;;;;;31.23;30.17;;;1.40;99.90;;;;;;5224592;22;20064;-87
2023/01/21 08:06:29;;;;;;;31.65;30.65;;;1.40;99.90;;;;;;5224330;22;20341;-87
2023/01/21 08:08:49;;;;;;;31.00;30.13;;;1.40;99.90;;;;;;5232931;22;20069;-87
2023/01/21 08:11:10;;;;;;;33.25;31.83;;;1.40;99.90;;;;;;5224389;22;20038;-87
2023/01/21 08:13:30;;;;;;;31.80;30.80;;;1.30;99.90;;;;;;5224323;22;20025;-87
2023/01/21 08:15:51;;;;;;;31.75;30.83;;;1.30;99.90;;;;;;5232920;22;20056;-87
2023/01/21 08:18:11;;;;;;;35.97;34.63;;;1.30;99.90;;;;;;5209252;22;20026;-87
2023/01/21 08:20:31;;;;;;;32.13;31.17;;;1.20;99.90;;;;;;5216674;22;20026;-87
2023/01/21 08:22:51;;;;;;;29.40;28.70;;;1.10;99.90;;;;;;5224352;22;20031;-87
2023/01/21 08:25:11;;;;;;;32.05;31.10;;;1.10;99.90;;;;;;5224485;22;20025;-87
2023/01/21 08:27:31;;;;;;;34.58;33.45;;;1.20;99.90;;;;;;5224372;22;20023;-87
2023/01/21 08:29:52;;;;;;;33.47;32.22;;;1.20;99.90;;;;;;5200745;22;20211;-87
2023/01/21 08:32:12;;;;;;;32.33;31.02;;;1.20;99.90;;;;;;5222418;22;20026;-87
2023/01/21 08:34:32;;;;;;;33.15;32.15;;;1.30;99.90;;;;;;5224269;22;20038;-86
2023/01/21 08:36:53;;;;;;;35.35;34.15;;;1.30;99.90;;;;;;5200756;22;20088;-86
2023/01/21 08:39:14;;;;;;;36.47;34.75;;;1.30;99.90;;;;;;5225659;22;20030;-87
2023/01/21 08:41:34;;;;;;;34.72;33.33;;;1.30;99.90;;;;;;5227612;22;20026;-87
2023/01/21 08:43:54;;;;;;;32.30;31.15;;;1.40;99.90;;;;;;5204174;22;20334;-87
2023/01/21 08:46:14;;;;;;;30.92;30.02;;;1.30;99.90;;;;;;5200651;22;20142;-87
2023/01/21 08:48:36;;;;;;;34.13;32.35;;;1.40;99.90;;;;;;5210389;22;20319;-86
2023/01/21 08:50:59;;;;;;;32.40;31.00;;;1.30;99.90;;;;;;5202450;22;20023;-86
2023/01/21 08:53:20;;;;;;;29.33;28.55;;;1.40;99.90;;;;;;5224163;22;20250;-86
2023/01/21 08:55:40;;;;;;;30.73;29.52;;;1.30;99.90;;;;;;5224229;22;20022;-86
2023/01/21 08:58:00;;;;;;;36.10;34.40;;;1.30;99.90;;;;;;5197508;22;20377;-86
2023/01/21 09:00:22;;;;;;;35.65;34.15;;;1.20;99.90;;;;;;5218980;22;20049;-87
2023/01/21 09:02:43;;;;;;;35.90;34.50;;;1.20;99.90;;;;;;5209347;22;20022;-87
2023/01/21 09:05:03;;;;;;;32.85;31.85;;;1.10;99.90;;;;;;5214341;22;20342;-86
2023/01/21 09:07:24;;;;;;;32.35;31.35;;;1.10;99.90;;;;;;5210338;22;20022;-86
2023/01/21 09:09:44;;;;;;;32.35;31.33;;;1.10;99.90;;;;;;5224038;22;20345;-87
2023/01/21 09:12:05;;;;;;;30.55;29.73;;;1.20;99.90;;;;;;5224141;22;20069;-87
2023/01/21 09:14:26;;;;;;;33.15;32.15;;;1.20;99.90;;;;;;5224101;22;20064;-86
2023/01/21 09:16:49;;;;;;;31.50;30.52;;;1.20;99.90;;;;;;5232599;22;20026;-86
2023/01/21 09:19:09;;;;;;;46.40;42.58;;;1.20;99.90;;;;;;5224068;22;20090;-86
2023/01/21 09:21:29;;;;;;;36.70;34.85;;;1.30;99.90;;;;;;5232728;22;20026;-86
2023/01/21 09:23:49;;;;;;;30.45;29.55;;;1.30;99.90;;;;;;5224126;22;20056;-86
2023/01/21 09:26:12;;;;;;;29.02;27.63;;;1.40;99.90;;;;;;5232736;22;20333;-87
2023/01/21 09:28:34;;;;;;;;;;;1.40;99.90;;;;;;5210709;22;20070;-86
2023/01/21 09:31:03;;;;;;;32.40;31.00;;;1.50;99.90;;;;;;5179004;22;19925;-86
2023/01/21 09:33:24;;;;;;;32.95;31.65;;;1.50;99.90;;;;;;5210002;22;20043;-87
2023/01/21 09:35:44;;;;;;;38.17;36.13;;;1.50;99.90;;;;;;5187482;22;20080;-87
2023/01/21 09:38:04;;;;;;;32.22;31.23;;;1.60;99.90;;;;;;5201741;22;20070;-87
2023/01/21 09:40:24;;;;;;;33.17;32.17;;;1.60;99.90;;;;;;5200641;22;20022;-86
2023/01/21 09:42:46;;;;;;;31.48;30.48;;;1.60;99.90;;;;;;5224124;22;20022;-86
2023/01/21 09:45:13;;;;;;;34.33;33.10;;;1.60;99.90;;;;;;5224121;22;20061;-86
2023/01/21 09:47:39;;;;;;;34.17;32.97;;;1.60;99.90;;;;;;5217452;22;20026;-87
2023/01/21 09:50:18;;;;;;;31.25;30.05;;;1.70;99.90;;;;;;5217728;22;20108;-86
2023/01/21 09:52:39;;;;;;;28.90;27.40;;;1.70;99.90;;;;;;5223962;22;20030;-87
2023/01/21 09:55:01;;;;;;;14.88;14.38;;;1.80;99.90;;;;;;5232593;22;20061;-87
2023/01/21 09:57:42;;;;;;;14.23;13.93;;;1.90;99.90;;;;;;5223933;22;20207;-86
2023/01/21 10:00:15;;;;;;;24.83;24.13;;;1.90;99.90;;;;;;5223889;22;20022;-87
2023/01/21 10:02:47;;;;;;;20.63;20.23;;;1.90;99.90;;;;;;5200361;22;20138;-86
2023/01/21 10:05:25;;;;;;;17.63;16.95;;;1.90;99.90;;;;;;5178730;22;20030;-87
2023/01/21 10:08:07;;;;;;;16.20;15.18;;;1.90;99.90;;;;;;5206354;22;20033;-86
2023/01/21 10:10:36;;;;;;;21.65;20.95;;;2.00;99.90;;;;;;5224052;22;20083;-86
2023/01/21 10:13:14;;;;;;;16.27;15.88;;;2.10;99.90;;;;;;5224012;22;20038;-86
2023/01/21 10:15:44;;;;;;;11.50;10.98;;;2.10;99.90;;;;;;5182802;22;20024;-86
2023/01/21 10:18:11;;;;;;;18.60;17.52;;;2.10;99.90;;;;;;5207785;22;20132;-87
2023/01/21 10:20:43;;;;;;;19.23;18.48;;;2.20;99.90;;;;;;5225438;22;20053;-86
2023/01/21 10:23:13;;;;;;;22.00;21.50;;;2.20;99.90;;;;;;5223828;22;20033;-87
2023/01/21 10:25:35;;;;;;;18.95;18.45;;;2.20;99.90;;;;;;5203473;22;20087;-86
2023/01/21 10:28:02;;;;;;;10.93;10.82;;;2.30;99.90;;;;;;5223990;22;20026;-86
2023/01/21 10:30:25;;;;;;;12.45;12.32;;;2.30;99.90;;;;;;5223863;22;20069;-87
2023/01/21 10:32:49;;;;;;;22.48;21.38;;;2.30;99.90;;;;;;5232322;22;20022;-87
2023/01/21 10:35:19;;;;;;;17.45;16.25;;;2.30;99.90;;;;;;5225849;22;20041;-87
2023/01/21 10:37:51;;;;;;;15.35;14.45;;;2.30;99.90;;;;;;5218259;22;20022;-86
2023/01/21 10:40:41;;;;;;;15.88;14.90;;;2.40;99.90;;;;;;5217667;22;20333;-86
2023/01/21 10:43:26;;;;;;;13.57;12.80;;;2.40;99.90;;;;;;5226985;22;20075;-87
2023/01/21 10:46:16;;;;;;;16.25;15.48;;;2.40;99.90;;;;;;5223709;22;20022;-86
2023/01/21 10:48:45;;;;;;;11.77;11.15;;;2.40;99.90;;;;;;5223784;22;20026;-86
2023/01/21 10:51:20;;;;;;;11.50;10.98;;;2.50;99.90;;;;;;5223636;22;20030;-87
2023/01/21 10:53:55;;;;;;;9.63;9.52;;;2.40;99.90;;;;;;5212331;22;20081;-86
2023/01/21 10:56:48;;;;;;;9.40;9.15;;;2.50;99.90;;;;;;5223645;22;20045;-87
2023/01/21 10:59:13;;;;;;;8.55;8.15;;;2.50;99.90;;;;;;5174348;22;20046;-86
2023/01/21 11:01:37;;;;;;;8.60;8.50;;;2.50;99.90;;;;;;5180410;22;20026;-87
2023/01/21 11:04:03;;;;;;;8.27;7.80;;;2.60;99.90;;;;;;5223619;22;20026;-87
2023/01/21 11:06:24;;;;;;;9.07;8.45;;;2.50;99.90;;;;;;5223473;22;20056;-86
2023/01/21 11:08:48;;;;;;;8.60;8.23;;;2.50;99.90;;;;;;5223542;22;20053;-87
2023/01/21 11:11:10;;;;;;;7.30;7.00;;;2.60;99.90;;;;;;5209479;22;20210;-87
2023/01/21 11:13:31;;;;;;;9.68;9.48;;;2.50;99.90;;;;;;5223565;22;20033;-87
2023/01/21 11:15:53;;;;;;;11.85;11.38;;;2.50;99.90;;;;;;5218850;22;20022;-87
2023/01/21 11:18:30;;;;;;;9.27;8.70;;;2.50;99.90;;;;;;5214855;22;20060;-86
2023/01/21 11:20:54;;;;;;;11.93;11.63;;;2.40;99.90;;;;;;5232131;22;20070;-87
2023/01/21 11:23:29;;;;;;;11.18;10.77;;;2.50;99.90;;;;;;5199951;22;20022;-87
2023/01/21 11:25:49;;;;;;;13.00;12.38;;;2.50;99.90;;;;;;5234137;22;20041;-87
2023/01/21 11:28:41;;;;;;;10.52;10.32;;;2.60;99.90;;;;;;5227696;22;20022;-87
2023/01/21 11:31:06;;;;;;;11.25;10.70;;;2.60;99.90;;;;;;5142849;23;20035;-87
2023/01/21 11:33:26;;;;;;;11.50;11.07;;;2.70;99.90;;;;;;5121800;23;20031;-87
2023/01/21 11:35:47;;;;;;;11.35;11.15;;;2.70;99.90;;;;;;5130141;23;20072;-87
2023/01/21 11:38:21;;;;;;;11.75;11.50;;;2.70;99.90;;;;;;5121802;23;20053;-88
2023/01/21 11:40:41;;;;;;;9.23;9.02;;;2.70;99.90;;;;;;5100678;23;20116;-87
2023/01/21 11:43:01;;;;;;;13.90;13.35;;;2.70;99.90;;;;;;5121862;23;20104;-86
2023/01/21 11:45:32;;;;;;;17.58;17.08;;;2.70;99.90;;;;;;5121874;23;20043;-87
2023/01/21 11:47:53;;;;;;;15.15;14.65;;;2.70;99.90;;;;;;5097068;23;20024;-86
2023/01/21 11:50:37;;;;;;;20.02;19.23;;;2.70;99.90;;;;;;5101494;23;20027;-86
2023/01/21 11:53:06;;;;;;;17.23;16.10;;;2.70;99.90;;;;;;5100182;23;20157;-86
2023/01/21 11:55:28;;;;;;;18.65;18.08;;;2.60;99.90;;;;;;5108663;23;20081;-86
2023/01/21 11:57:51;;;;;;;20.30;19.70;;;2.60;99.90;;;;;;5121863;23;20064;-87
2023/01/21 12:00:18;;;;;;;25.38;24.38;;;2.50;99.90;;;;;;5121554;23;20137;-87
2023/01/21 12:02:43;;;;;;;23.55;22.50;;;2.40;99.90;;;;;;5121697;23;20028;-86
2023/01/21 12:05:29;;;;;;;12.32;11.93;;;2.50;99.90;;;;;;5121816;23;20083;-86
2023/01/21 12:07:51;;;;;;;18.90;18.27;;;2.50;99.90;;;;;;5220241;22;20051;-86
2023/01/21 12:10:10;;;;;;;15.35;14.73;;;2.50;99.90;;;;;;5200838;22;20027;-86
2023/01/21 12:12:45;;;;;;;10.85;10.25;;;2.50;99.90;;;;;;5219032;22;20022;-86
2023/01/21 12:15:22;;;;;;;10.40;10.00;;;2.50;99.90;;;;;;5224408;22;20317;-86
2023/01/21 12:18:14;;;;;;;9.13;8.93;;;2.40;99.90;;;;;;5204246;22;20338;-87
2023/01/21 12:20:50;;;;;;;10.48;9.93;;;2.40;99.90;;;;;;5206873;22;20046;-86
2023/01/21 12:23:22;;;;;;;9.43;9.18;;;2.40;99.90;;;;;;5224362;22;20084;-86